sensor_id;sensor_type;location;lat;lon;timestamp;P1;durP1;ratioP1;P2;durP2;ratioP2
30068;SDS011;16894;49.456;10.644;2023-07-09T00:02:12;78.95;;;73.43;;
30068;SDS011;16894;49.456;10.644;2023-07-09T00:04:39;77.05;;;71.45;;
30068;SDS011;16894;49.456;10.644;2023-07-09T00:07:05;70.70;;;65.75;;
30068;SDS011;16894;49.456;10.644;2023-07-09T00:09:40;78.93;;;73.40;;
30068;SDS011;16894;49.456;10.644;2023-07-09T00:12:07;75.40;;;70.33;;
30068;SDS011;16894;49.456;10.644;2023-07-09T00:14:37;82.80;;;76.93;;
30068;SDS011;16894;49.456;10.644;2023-07-09T00:17:07;90.35;;;83.97;;
30068;SDS011;16894;49.456;10.644;2023-07-09T00:19:34;92.10;;;86.03;;
30068;SDS011;16894;49.456;10.644;2023-07-09T00:22:00;72.43;;;67.43;;
30068;SDS011;16894;49.456;10.644;2023-07-09T00:24:26;70.33;;;65.53;;
30068;SDS011;16894;49.456;10.644;2023-07-09T00:26:52;74.68;;;69.85;;
30068;SDS011;16894;49.456;10.644;2023-07-09T00:29:17;89.73;;;83.60;;
30068;SDS011;16894;49.456;10.644;2023-07-09T00:31:43;82.10;;;76.60;;
30068;SDS011;16894;49.456;10.644;2023-07-09T00:34:09;94.22;;;87.97;;
30068;SDS011;16894;49.456;10.644;2023-07-09T00:36:39;90.00;;;83.97;;
30068;SDS011;16894;49.456;10.644;2023-07-09T00:39:18;96.32;;;90.07;;
30068;SDS011;16894;49.456;10.644;2023-07-09T00:41:46;85.35;;;79.65;;
30068;SDS011;16894;49.456;10.644;2023-07-09T00:44:28;82.05;;;76.72;;
30068;SDS011;16894;49.456;10.644;2023-07-09T00:51:54;81.30;;;75.90;;
30068;SDS011;16894;49.456;10.644;2023-07-09T00:54:29;77.00;;;71.90;;
30068;SDS011;16894;49.456;10.644;2023-07-09T00:57:03;74.70;;;69.57;;
30068;SDS011;16894;49.456;10.644;2023-07-09T00:59:34;88.47;;;82.65;;
30068;SDS011;16894;49.456;10.644;2023-07-09T01:02:00;77.88;;;72.75;;
30068;SDS011;16894;49.456;10.644;2023-07-09T01:04:26;83.43;;;77.82;;
30068;SDS011;16894;49.456;10.644;2023-07-09T01:06:53;93.38;;;87.25;;
30068;SDS011;16894;49.456;10.644;2023-07-09T01:09:21;98.28;;;91.55;;
30068;SDS011;16894;49.456;10.644;2023-07-09T01:11:48;101.57;;;94.05;;
30068;SDS011;16894;49.456;10.644;2023-07-09T01:14:15;94.22;;;88.32;;
30068;SDS011;16894;49.456;10.644;2023-07-09T01:16:46;124.78;;;116.82;;
30068;SDS011;16894;49.456;10.644;2023-07-09T01:19:22;132.02;;;123.88;;
30068;SDS011;16894;49.456;10.644;2023-07-09T01:21:52;130.98;;;122.25;;
30068;SDS011;16894;49.456;10.644;2023-07-09T01:27:35;112.15;;;104.90;;
30068;SDS011;16894;49.456;10.644;2023-07-09T01:30:16;127.10;;;118.82;;
30068;SDS011;16894;49.456;10.644;2023-07-09T01:32:49;133.10;;;124.53;;
30068;SDS011;16894;49.456;10.644;2023-07-09T01:35:16;143.57;;;134.38;;
30068;SDS011;16894;49.456;10.644;2023-07-09T01:37:45;142.55;;;133.48;;
30068;SDS011;16894;49.456;10.644;2023-07-09T01:40:12;134.07;;;125.00;;
30068;SDS011;16894;49.456;10.644;2023-07-09T01:42:40;141.77;;;132.77;;
30068;SDS011;16894;49.456;10.644;2023-07-09T01:45:06;139.43;;;130.75;;
30068;SDS011;16894;49.456;10.644;2023-07-09T01:47:36;135.57;;;126.90;;
30068;SDS011;16894;49.456;10.644;2023-07-09T01:50:03;136.73;;;128.00;;
30068;SDS011;16894;49.456;10.644;2023-07-09T01:52:30;136.20;;;127.30;;
30068;SDS011;16894;49.456;10.644;2023-07-09T01:54:57;127.07;;;119.00;;
30068;SDS011;16894;49.456;10.644;2023-07-09T01:57:24;146.48;;;136.93;;
30068;SDS011;16894;49.456;10.644;2023-07-09T01:59:58;118.22;;;110.88;;
30068;SDS011;16894;49.456;10.644;2023-07-09T02:02:25;123.78;;;115.78;;
30068;SDS011;16894;49.456;10.644;2023-07-09T02:04:52;136.57;;;127.88;;
30068;SDS011;16894;49.456;10.644;2023-07-09T02:07:19;111.95;;;104.88;;
30068;SDS011;16894;49.456;10.644;2023-07-09T02:09:46;102.82;;;96.32;;
30068;SDS011;16894;49.456;10.644;2023-07-09T02:12:13;95.50;;;89.57;;
30068;SDS011;16894;49.456;10.644;2023-07-09T02:14:40;98.43;;;91.95;;
30068;SDS011;16894;49.456;10.644;2023-07-09T02:17:07;98.57;;;92.03;;
30068;SDS011;16894;49.456;10.644;2023-07-09T02:19:33;84.85;;;79.53;;
30068;SDS011;16894;49.456;10.644;2023-07-09T02:21:59;85.45;;;79.72;;
30068;SDS011;16894;49.456;10.644;2023-07-09T02:24:25;93.55;;;87.50;;
30068;SDS011;16894;49.456;10.644;2023-07-09T02:26:56;96.93;;;90.47;;
30068;SDS011;16894;49.456;10.644;2023-07-09T02:29:23;98.57;;;92.40;;
30068;SDS011;16894;49.456;10.644;2023-07-09T02:31:50;103.82;;;96.65;;
30068;SDS011;16894;49.456;10.644;2023-07-09T02:34:17;87.35;;;81.45;;
30068;SDS011;16894;49.456;10.644;2023-07-09T02:36:44;71.53;;;66.57;;
30068;SDS011;16894;49.456;10.644;2023-07-09T02:39:10;57.85;;;53.88;;
30068;SDS011;16894;49.456;10.644;2023-07-09T02:41:38;45.50;;;42.38;;
30068;SDS011;16894;49.456;10.644;2023-07-09T02:44:07;40.45;;;37.45;;
30068;SDS011;16894;49.456;10.644;2023-07-09T02:46:33;35.08;;;32.42;;
30068;SDS011;16894;49.456;10.644;2023-07-09T02:48:59;32.55;;;30.00;;
30068;SDS011;16894;49.456;10.644;2023-07-09T02:51:27;31.15;;;28.75;;
30068;SDS011;16894;49.456;10.644;2023-07-09T02:53:57;29.87;;;27.53;;
30068;SDS011;16894;49.456;10.644;2023-07-09T02:56:25;29.70;;;27.05;;
30068;SDS011;16894;49.456;10.644;2023-07-09T02:58:51;28.52;;;26.30;;
30068;SDS011;16894;49.456;10.644;2023-07-09T03:01:16;27.27;;;25.13;;
30068;SDS011;16894;49.456;10.644;2023-07-09T03:03:42;26.23;;;23.77;;
30068;SDS011;16894;49.456;10.644;2023-07-09T03:06:09;26.30;;;23.92;;
30068;SDS011;16894;49.456;10.644;2023-07-09T03:11:08;29.30;;;27.08;;
30068;SDS011;16894;49.456;10.644;2023-07-09T03:13:35;26.42;;;24.38;;
30068;SDS011;16894;49.456;10.644;2023-07-09T03:16:00;24.63;;;22.67;;
30068;SDS011;16894;49.456;10.644;2023-07-09T03:18:26;28.10;;;22.17;;
30068;SDS011;16894;49.456;10.644;2023-07-09T03:20:52;21.63;;;19.67;;
30068;SDS011;16894;49.456;10.644;2023-07-09T03:23:17;22.00;;;20.33;;
30068;SDS011;16894;49.456;10.644;2023-07-09T03:25:43;29.67;;;21.60;;
30068;SDS011;16894;49.456;10.644;2023-07-09T03:28:13;23.92;;;21.92;;
30068;SDS011;16894;49.456;10.644;2023-07-09T03:30:42;24.08;;;22.13;;
30068;SDS011;16894;49.456;10.644;2023-07-09T03:33:12;22.83;;;21.00;;
30068;SDS011;16894;49.456;10.644;2023-07-09T03:35:39;22.75;;;20.70;;
30068;SDS011;16894;49.456;10.644;2023-07-09T03:38:05;24.70;;;22.35;;
30068;SDS011;16894;49.456;10.644;2023-07-09T03:40:32;23.58;;;21.80;;
30068;SDS011;16894;49.456;10.644;2023-07-09T03:42:58;22.55;;;20.50;;
30068;SDS011;16894;49.456;10.644;2023-07-09T03:45:24;20.27;;;18.73;;
30068;SDS011;16894;49.456;10.644;2023-07-09T03:47:50;23.27;;;20.10;;
30068;SDS011;16894;49.456;10.644;2023-07-09T03:50:16;21.20;;;19.58;;
30068;SDS011;16894;49.456;10.644;2023-07-09T03:52:41;22.67;;;20.75;;
30068;SDS011;16894;49.456;10.644;2023-07-09T03:55:08;27.88;;;25.45;;
30068;SDS011;16894;49.456;10.644;2023-07-09T04:00:01;33.15;;;30.58;;
30068;SDS011;16894;49.456;10.644;2023-07-09T04:02:29;29.98;;;27.55;;
30068;SDS011;16894;49.456;10.644;2023-07-09T04:04:54;25.35;;;23.60;;
30068;SDS011;16894;49.456;10.644;2023-07-09T04:07:20;27.70;;;25.50;;
30068;SDS011;16894;49.456;10.644;2023-07-09T04:09:46;28.17;;;26.00;;
30068;SDS011;16894;49.456;10.644;2023-07-09T04:12:11;27.97;;;25.77;;
30068;SDS011;16894;49.456;10.644;2023-07-09T04:14:37;24.92;;;23.10;;
30068;SDS011;16894;49.456;10.644;2023-07-09T04:17:05;24.02;;;22.23;;
30068;SDS011;16894;49.456;10.644;2023-07-09T04:19:31;26.23;;;24.15;;
30068;SDS011;16894;49.456;10.644;2023-07-09T04:21:57;24.57;;;22.70;;
30068;SDS011;16894;49.456;10.644;2023-07-09T04:24:23;24.57;;;22.73;;
30068;SDS011;16894;49.456;10.644;2023-07-09T04:26:49;23.98;;;22.05;;
30068;SDS011;16894;49.456;10.644;2023-07-09T04:29:15;21.23;;;19.63;;
30068;SDS011;16894;49.456;10.644;2023-07-09T04:31:40;22.10;;;20.23;;
30068;SDS011;16894;49.456;10.644;2023-07-09T04:34:07;21.02;;;19.30;;
30068;SDS011;16894;49.456;10.644;2023-07-09T04:36:32;21.35;;;19.40;;
30068;SDS011;16894;49.456;10.644;2023-07-09T04:38:58;21.83;;;20.08;;
30068;SDS011;16894;49.456;10.644;2023-07-09T04:41:24;22.05;;;20.23;;
30068;SDS011;16894;49.456;10.644;2023-07-09T04:43:50;22.95;;;21.00;;
30068;SDS011;16894;49.456;10.644;2023-07-09T04:46:16;22.58;;;20.60;;
30068;SDS011;16894;49.456;10.644;2023-07-09T04:48:42;22.23;;;20.40;;
30068;SDS011;16894;49.456;10.644;2023-07-09T04:51:08;23.33;;;20.97;;
30068;SDS011;16894;49.456;10.644;2023-07-09T04:53:33;24.13;;;21.80;;
30068;SDS011;16894;49.456;10.644;2023-07-09T04:55:59;26.83;;;24.85;;
30068;SDS011;16894;49.456;10.644;2023-07-09T04:58:27;35.03;;;32.17;;
30068;SDS011;16894;49.456;10.644;2023-07-09T05:00:56;45.97;;;42.40;;
30068;SDS011;16894;49.456;10.644;2023-07-09T05:03:22;50.15;;;46.78;;
30068;SDS011;16894;49.456;10.644;2023-07-09T05:05:48;49.28;;;45.58;;
30068;SDS011;16894;49.456;10.644;2023-07-09T05:08:14;58.57;;;54.40;;
30068;SDS011;16894;49.456;10.644;2023-07-09T05:10:43;68.88;;;64.03;;
30068;SDS011;16894;49.456;10.644;2023-07-09T05:13:10;72.72;;;67.40;;
30068;SDS011;16894;49.456;10.644;2023-07-09T05:15:39;66.63;;;62.05;;
30068;SDS011;16894;49.456;10.644;2023-07-09T05:18:06;62.30;;;58.08;;
30068;SDS011;16894;49.456;10.644;2023-07-09T05:20:33;53.92;;;50.35;;
30068;SDS011;16894;49.456;10.644;2023-07-09T05:23:00;38.25;;;35.67;;
30068;SDS011;16894;49.456;10.644;2023-07-09T05:25:25;37.45;;;34.72;;
30068;SDS011;16894;49.456;10.644;2023-07-09T05:27:51;40.72;;;37.72;;
30068;SDS011;16894;49.456;10.644;2023-07-09T05:30:17;38.90;;;35.63;;
30068;SDS011;16894;49.456;10.644;2023-07-09T05:32:44;38.60;;;35.65;;
30068;SDS011;16894;49.456;10.644;2023-07-09T05:37:36;26.35;;;24.38;;
30068;SDS011;16894;49.456;10.644;2023-07-09T05:40:03;31.23;;;28.40;;
30068;SDS011;16894;49.456;10.644;2023-07-09T05:42:30;23.77;;;21.67;;
30068;SDS011;16894;49.456;10.644;2023-07-09T05:44:57;20.83;;;19.10;;
30068;SDS011;16894;49.456;10.644;2023-07-09T05:47:23;33.58;;;22.35;;
30068;SDS011;16894;49.456;10.644;2023-07-09T05:49:48;29.10;;;26.27;;
30068;SDS011;16894;49.456;10.644;2023-07-09T05:52:19;43.03;;;39.80;;
30068;SDS011;16894;49.456;10.644;2023-07-09T05:54:48;41.53;;;38.38;;
30068;SDS011;16894;49.456;10.644;2023-07-09T05:57:15;42.40;;;39.25;;
30068;SDS011;16894;49.456;10.644;2023-07-09T05:59:40;51.90;;;48.17;;
30068;SDS011;16894;49.456;10.644;2023-07-09T06:02:12;65.23;;;60.70;;
30068;SDS011;16894;49.456;10.644;2023-07-09T06:04:40;86.45;;;80.40;;
30068;SDS011;16894;49.456;10.644;2023-07-09T06:09:32;125.38;;;117.07;;
30068;SDS011;16894;49.456;10.644;2023-07-09T06:11:58;137.35;;;128.38;;
30068;SDS011;16894;49.456;10.644;2023-07-09T06:14:24;160.10;;;150.13;;
30068;SDS011;16894;49.456;10.644;2023-07-09T06:19:15;181.95;;;170.38;;
30068;SDS011;16894;49.456;10.644;2023-07-09T06:21:41;282.38;;;261.42;;
30068;SDS011;16894;49.456;10.644;2023-07-09T06:24:07;226.70;;;212.63;;
30068;SDS011;16894;49.456;10.644;2023-07-09T06:28:59;232.57;;;217.57;;
30068;SDS011;16894;49.456;10.644;2023-07-09T06:31:25;281.60;;;264.08;;
30068;SDS011;16894;49.456;10.644;2023-07-09T06:33:50;285.55;;;267.63;;
30068;SDS011;16894;49.456;10.644;2023-07-09T06:36:16;384.33;;;360.00;;
30068;SDS011;16894;49.456;10.644;2023-07-09T06:38:43;728.03;;;674.13;;
30068;SDS011;16894;49.456;10.644;2023-07-09T06:41:09;950.03;;;871.35;;
30068;SDS011;16894;49.456;10.644;2023-07-09T06:46:04;1050.43;;;955.03;;
30068;SDS011;16894;49.456;10.644;2023-07-09T06:48:30;1092.05;;;990.45;;
30068;SDS011;16894;49.456;10.644;2023-07-09T06:50:57;1142.90;;;999.90;;
30068;SDS011;16894;49.456;10.644;2023-07-09T06:53:23;1187.00;;;999.90;;
30068;SDS011;16894;49.456;10.644;2023-07-09T06:55:50;1219.60;;;999.90;;
30068;SDS011;16894;49.456;10.644;2023-07-09T06:58:18;1236.55;;;999.90;;
30068;SDS011;16894;49.456;10.644;2023-07-09T07:03:10;1231.03;;;999.90;;
30068;SDS011;16894;49.456;10.644;2023-07-09T07:05:36;1256.25;;;999.90;;
30068;SDS011;16894;49.456;10.644;2023-07-09T07:08:02;1322.07;;;999.90;;
30068;SDS011;16894;49.456;10.644;2023-07-09T07:10:29;1356.95;;;999.90;;
30068;SDS011;16894;49.456;10.644;2023-07-09T07:12:55;1409.22;;;999.90;;
30068;SDS011;16894;49.456;10.644;2023-07-09T07:15:21;1594.93;;;999.90;;
30068;SDS011;16894;49.456;10.644;2023-07-09T07:17:47;1900.68;;;999.90;;
30068;SDS011;16894;49.456;10.644;2023-07-09T07:20:13;1998.65;;;999.90;;
30068;SDS011;16894;49.456;10.644;2023-07-09T07:22:40;1999.90;;;999.90;;
30068;SDS011;16894;49.456;10.644;2023-07-09T07:25:06;1938.13;;;999.90;;
30068;SDS011;16894;49.456;10.644;2023-07-09T07:27:33;1999.90;;;999.90;;
30068;SDS011;16894;49.456;10.644;2023-07-09T07:29:59;1999.90;;;999.90;;
30068;SDS011;16894;49.456;10.644;2023-07-09T07:32:25;1999.90;;;999.90;;
30068;SDS011;16894;49.456;10.644;2023-07-09T07:34:51;1999.90;;;999.90;;
30068;SDS011;16894;49.456;10.644;2023-07-09T07:37:18;1999.90;;;999.90;;
30068;SDS011;16894;49.456;10.644;2023-07-09T07:39:47;1999.90;;;999.90;;
30068;SDS011;16894;49.456;10.644;2023-07-09T07:42:13;1999.90;;;999.90;;
30068;SDS011;16894;49.456;10.644;2023-07-09T07:44:40;1999.90;;;999.90;;
30068;SDS011;16894;49.456;10.644;2023-07-09T07:47:05;1999.90;;;999.90;;
30068;SDS011;16894;49.456;10.644;2023-07-09T07:49:31;1999.90;;;999.90;;
30068;SDS011;16894;49.456;10.644;2023-07-09T07:54:22;1999.90;;;999.90;;
30068;SDS011;16894;49.456;10.644;2023-07-09T07:59:14;1999.90;;;999.90;;
30068;SDS011;16894;49.456;10.644;2023-07-09T08:01:40;1999.90;;;999.90;;
30068;SDS011;16894;49.456;10.644;2023-07-09T08:06:31;1999.90;;;999.90;;
30068;SDS011;16894;49.456;10.644;2023-07-09T08:11:23;1999.90;;;999.90;;
30068;SDS011;16894;49.456;10.644;2023-07-09T08:13:49;1999.90;;;999.90;;
30068;SDS011;16894;49.456;10.644;2023-07-09T08:16:16;1999.90;;;999.90;;
30068;SDS011;16894;49.456;10.644;2023-07-09T08:18:41;1999.90;;;999.90;;
30068;SDS011;16894;49.456;10.644;2023-07-09T08:23:34;1999.90;;;999.90;;
30068;SDS011;16894;49.456;10.644;2023-07-09T08:28:27;1999.90;;;999.90;;
30068;SDS011;16894;49.456;10.644;2023-07-09T08:30:57;1999.90;;;999.90;;
30068;SDS011;16894;49.456;10.644;2023-07-09T08:33:24;1999.90;;;999.90;;
30068;SDS011;16894;49.456;10.644;2023-07-09T08:35:50;1999.90;;;999.90;;
30068;SDS011;16894;49.456;10.644;2023-07-09T08:38:17;1999.90;;;999.90;;
30068;SDS011;16894;49.456;10.644;2023-07-09T08:41:00;1999.90;;;999.90;;
30068;SDS011;16894;49.456;10.644;2023-07-09T08:46:20;1999.90;;;999.90;;
30068;SDS011;16894;49.456;10.644;2023-07-09T08:49:21;1999.90;;;999.90;;
30068;SDS011;16894;49.456;10.644;2023-07-09T08:51:55;1999.90;;;999.90;;
30068;SDS011;16894;49.456;10.644;2023-07-09T08:54:26;1999.90;;;999.90;;
30068;SDS011;16894;49.456;10.644;2023-07-09T08:56:59;1999.90;;;999.90;;
30068;SDS011;16894;49.456;10.644;2023-07-09T08:59:34;1999.90;;;999.90;;
30068;SDS011;16894;49.456;10.644;2023-07-09T09:02:01;1999.90;;;999.90;;
30068;SDS011;16894;49.456;10.644;2023-07-09T09:04:34;1999.90;;;999.90;;
30068;SDS011;16894;49.456;10.644;2023-07-09T09:09:56;1999.90;;;999.90;;
30068;SDS011;16894;49.456;10.644;2023-07-09T09:15:09;1999.90;;;999.90;;
30068;SDS011;16894;49.456;10.644;2023-07-09T09:22:42;1999.90;;;999.90;;
30068;SDS011;16894;49.456;10.644;2023-07-09T09:25:18;1999.90;;;999.90;;
30068;SDS011;16894;49.456;10.644;2023-07-09T09:27:50;1999.90;;;999.90;;
30068;SDS011;16894;49.456;10.644;2023-07-09T09:30:20;1999.90;;;999.90;;
30068;SDS011;16894;49.456;10.644;2023-07-09T09:32:55;1999.90;;;999.90;;
30068;SDS011;16894;49.456;10.644;2023-07-09T09:37:59;1999.90;;;999.90;;
30068;SDS011;16894;49.456;10.644;2023-07-09T09:40:26;1999.90;;;999.90;;
30068;SDS011;16894;49.456;10.644;2023-07-09T09:42:55;1999.90;;;999.90;;
30068;SDS011;16894;49.456;10.644;2023-07-09T09:45:27;1999.90;;;999.90;;
30068;SDS011;16894;49.456;10.644;2023-07-09T09:47:58;1999.90;;;999.90;;
30068;SDS011;16894;49.456;10.644;2023-07-09T09:50:25;1999.90;;;999.90;;
30068;SDS011;16894;49.456;10.644;2023-07-09T09:52:56;1999.90;;;999.90;;
30068;SDS011;16894;49.456;10.644;2023-07-09T09:55:24;1999.90;;;999.90;;
30068;SDS011;16894;49.456;10.644;2023-07-09T09:57:53;1999.90;;;999.90;;
30068;SDS011;16894;49.456;10.644;2023-07-09T10:00:24;1999.90;;;999.90;;
30068;SDS011;16894;49.456;10.644;2023-07-09T10:02:58;1999.90;;;999.90;;
30068;SDS011;16894;49.456;10.644;2023-07-09T10:05:31;1999.90;;;999.90;;
30068;SDS011;16894;49.456;10.644;2023-07-09T10:08:09;1999.90;;;999.90;;
30068;SDS011;16894;49.456;10.644;2023-07-09T10:11:00;1999.90;;;999.90;;
30068;SDS011;16894;49.456;10.644;2023-07-09T10:13:37;1999.90;;;999.90;;
30068;SDS011;16894;49.456;10.644;2023-07-09T10:16:21;1999.90;;;999.90;;
30068;SDS011;16894;49.456;10.644;2023-07-09T10:19:02;1999.90;;;999.90;;
30068;SDS011;16894;49.456;10.644;2023-07-09T10:22:04;1999.90;;;999.90;;
30068;SDS011;16894;49.456;10.644;2023-07-09T10:27:07;1999.90;;;999.90;;
30068;SDS011;16894;49.456;10.644;2023-07-09T10:29:41;1999.90;;;999.90;;
30068;SDS011;16894;49.456;10.644;2023-07-09T10:40:39;1999.90;;;999.90;;
30068;SDS011;16894;49.456;10.644;2023-07-09T10:43:11;1999.90;;;999.90;;
30068;SDS011;16894;49.456;10.644;2023-07-09T10:45:48;1999.90;;;999.90;;
30068;SDS011;16894;49.456;10.644;2023-07-09T10:48:26;1999.90;;;999.90;;
30068;SDS011;16894;49.456;10.644;2023-07-09T10:51:00;1999.90;;;999.90;;
30068;SDS011;16894;49.456;10.644;2023-07-09T10:53:39;1999.90;;;999.90;;
30068;SDS011;16894;49.456;10.644;2023-07-09T10:56:11;1999.90;;;999.90;;
30068;SDS011;16894;49.456;10.644;2023-07-09T11:01:48;1999.90;;;999.90;;
30068;SDS011;16894;49.456;10.644;2023-07-09T11:06:46;1999.90;;;999.90;;
30068;SDS011;16894;49.456;10.644;2023-07-09T11:09:25;1999.90;;;999.90;;
30068;SDS011;16894;49.456;10.644;2023-07-09T11:11:56;1999.90;;;999.90;;
30068;SDS011;16894;49.456;10.644;2023-07-09T11:14:32;1999.90;;;999.90;;
30068;SDS011;16894;49.456;10.644;2023-07-09T11:17:04;1999.90;;;999.90;;
30068;SDS011;16894;49.456;10.644;2023-07-09T11:19:41;1999.90;;;999.90;;
30068;SDS011;16894;49.456;10.644;2023-07-09T11:22:22;1999.90;;;999.90;;
30068;SDS011;16894;49.456;10.644;2023-07-09T11:27:18;1999.90;;;999.90;;
30068;SDS011;16894;49.456;10.644;2023-07-09T11:29:47;1999.90;;;999.90;;
30068;SDS011;16894;49.456;10.644;2023-07-09T11:32:23;1999.90;;;999.90;;
30068;SDS011;16894;49.456;10.644;2023-07-09T11:34:49;1999.90;;;999.90;;
30068;SDS011;16894;49.456;10.644;2023-07-09T11:37:15;1999.90;;;999.90;;
30068;SDS011;16894;49.456;10.644;2023-07-09T11:39:46;1999.90;;;999.90;;
30068;SDS011;16894;49.456;10.644;2023-07-09T11:42:23;1999.90;;;999.90;;
30068;SDS011;16894;49.456;10.644;2023-07-09T11:44:49;1999.90;;;999.90;;
30068;SDS011;16894;49.456;10.644;2023-07-09T11:49:59;534.80;;;496.85;;
30068;SDS011;16894;49.456;10.644;2023-07-09T11:52:33;561.42;;;520.70;;
30068;SDS011;16894;49.456;10.644;2023-07-09T11:55:21;535.05;;;497.25;;
30068;SDS011;16894;49.456;10.644;2023-07-09T11:58:04;698.53;;;644.38;;
30068;SDS011;16894;49.456;10.644;2023-07-09T12:00:36;762.47;;;701.10;;
30068;SDS011;16894;49.456;10.644;2023-07-09T12:03:05;661.92;;;611.60;;
30068;SDS011;16894;49.456;10.644;2023-07-09T12:05:32;1644.95;;;884.78;;
30068;SDS011;16894;49.456;10.644;2023-07-09T12:07:58;1999.90;;;999.90;;
30068;SDS011;16894;49.456;10.644;2023-07-09T12:10:25;1999.90;;;999.90;;
30068;SDS011;16894;49.456;10.644;2023-07-09T12:12:57;1999.90;;;999.90;;
30068;SDS011;16894;49.456;10.644;2023-07-09T12:15:24;1999.90;;;999.90;;
30068;SDS011;16894;49.456;10.644;2023-07-09T12:17:52;1999.90;;;999.90;;
30068;SDS011;16894;49.456;10.644;2023-07-09T12:20:19;1999.90;;;999.90;;
30068;SDS011;16894;49.456;10.644;2023-07-09T12:22:45;1999.90;;;999.90;;
30068;SDS011;16894;49.456;10.644;2023-07-09T12:25:26;1999.90;;;999.90;;
30068;SDS011;16894;49.456;10.644;2023-07-09T12:27:54;1999.90;;;999.90;;
30068;SDS011;16894;49.456;10.644;2023-07-09T12:30:19;1999.90;;;999.90;;
30068;SDS011;16894;49.456;10.644;2023-07-09T12:32:49;1999.90;;;999.90;;
30068;SDS011;16894;49.456;10.644;2023-07-09T12:35:17;1999.90;;;999.90;;
30068;SDS011;16894;49.456;10.644;2023-07-09T12:37:44;1999.90;;;999.90;;
30068;SDS011;16894;49.456;10.644;2023-07-09T12:40:13;1999.90;;;999.90;;
30068;SDS011;16894;49.456;10.644;2023-07-09T12:42:41;185.80;;;174.23;;
30068;SDS011;16894;49.456;10.644;2023-07-09T12:45:17;179.82;;;168.57;;
30068;SDS011;16894;49.456;10.644;2023-07-09T12:47:45;651.15;;;602.15;;
30068;SDS011;16894;49.456;10.644;2023-07-09T12:50:17;613.03;;;567.63;;
30068;SDS011;16894;49.456;10.644;2023-07-09T12:52:56;460.17;;;429.55;;
30068;SDS011;16894;49.456;10.644;2023-07-09T12:55:26;581.70;;;538.70;;
30068;SDS011;16894;49.456;10.644;2023-07-09T12:57:59;523.80;;;486.73;;
30068;SDS011;16894;49.456;10.644;2023-07-09T13:00:29;570.03;;;528.35;;
30068;SDS011;16894;49.456;10.644;2023-07-09T13:02:57;563.00;;;522.58;;
30068;SDS011;16894;49.456;10.644;2023-07-09T13:05:24;633.05;;;585.47;;
30068;SDS011;16894;49.456;10.644;2023-07-09T13:07:51;568.40;;;527.45;;
30068;SDS011;16894;49.456;10.644;2023-07-09T13:10:21;631.05;;;583.72;;
30068;SDS011;16894;49.456;10.644;2023-07-09T13:12:51;654.88;;;604.17;;
30068;SDS011;16894;49.456;10.644;2023-07-09T13:15:40;617.13;;;570.40;;
30068;SDS011;16894;49.456;10.644;2023-07-09T13:18:10;651.53;;;601.63;;
30068;SDS011;16894;49.456;10.644;2023-07-09T13:20:39;676.58;;;624.30;;
30068;SDS011;16894;49.456;10.644;2023-07-09T13:23:11;707.08;;;652.65;;
30068;SDS011;16894;49.456;10.644;2023-07-09T13:25:39;670.33;;;618.45;;
30068;SDS011;16894;49.456;10.644;2023-07-09T13:28:16;701.22;;;647.38;;
30068;SDS011;16894;49.456;10.644;2023-07-09T13:30:44;687.25;;;634.03;;
30068;SDS011;16894;49.456;10.644;2023-07-09T13:33:11;730.45;;;673.78;;
30068;SDS011;16894;49.456;10.644;2023-07-09T13:35:37;664.63;;;613.95;;
30068;SDS011;16894;49.456;10.644;2023-07-09T13:38:05;726.13;;;669.55;;
30068;SDS011;16894;49.456;10.644;2023-07-09T13:40:38;751.63;;;692.25;;
30068;SDS011;16894;49.456;10.644;2023-07-09T13:43:07;781.05;;;718.63;;
30068;SDS011;16894;49.456;10.644;2023-07-09T13:45:38;727.10;;;669.33;;
30068;SDS011;16894;49.456;10.644;2023-07-09T13:48:07;727.67;;;670.80;;
30068;SDS011;16894;49.456;10.644;2023-07-09T13:50:38;633.42;;;585.45;;
30068;SDS011;16894;49.456;10.644;2023-07-09T13:53:05;655.78;;;605.63;;
30068;SDS011;16894;49.456;10.644;2023-07-09T13:55:37;709.42;;;653.10;;
30068;SDS011;16894;49.456;10.644;2023-07-09T13:58:03;629.40;;;580.15;;
30068;SDS011;16894;49.456;10.644;2023-07-09T14:00:29;598.22;;;551.72;;
30068;SDS011;16894;49.456;10.644;2023-07-09T14:02:54;747.83;;;687.30;;
30068;SDS011;16894;49.456;10.644;2023-07-09T14:05:20;793.38;;;728.67;;
30068;SDS011;16894;49.456;10.644;2023-07-09T14:07:46;749.78;;;690.83;;
30068;SDS011;16894;49.456;10.644;2023-07-09T14:10:13;812.15;;;746.65;;
30068;SDS011;16894;49.456;10.644;2023-07-09T14:12:43;779.28;;;716.92;;
30068;SDS011;16894;49.456;10.644;2023-07-09T14:15:20;759.10;;;698.92;;
30068;SDS011;16894;49.456;10.644;2023-07-09T14:17:46;809.10;;;742.97;;
30068;SDS011;16894;49.456;10.644;2023-07-09T14:20:12;768.53;;;706.55;;
30068;SDS011;16894;49.456;10.644;2023-07-09T14:22:40;752.65;;;692.28;;
30068;SDS011;16894;49.456;10.644;2023-07-09T14:25:28;750.90;;;690.72;;
30068;SDS011;16894;49.456;10.644;2023-07-09T14:27:54;714.72;;;657.92;;
30068;SDS011;16894;49.456;10.644;2023-07-09T14:30:21;679.50;;;626.35;;
30068;SDS011;16894;49.456;10.644;2023-07-09T14:32:49;713.42;;;656.40;;
30068;SDS011;16894;49.456;10.644;2023-07-09T14:35:19;691.08;;;636.78;;
30068;SDS011;16894;49.456;10.644;2023-07-09T14:37:48;693.88;;;640.03;;
30068;SDS011;16894;49.456;10.644;2023-07-09T14:40:16;402.83;;;377.20;;
30068;SDS011;16894;49.456;10.644;2023-07-09T14:42:45;747.42;;;688.38;;
30068;SDS011;16894;49.456;10.644;2023-07-09T14:45:15;749.65;;;691.17;;
30068;SDS011;16894;49.456;10.644;2023-07-09T14:47:43;781.15;;;718.67;;
30068;SDS011;16894;49.456;10.644;2023-07-09T14:50:09;753.33;;;693.47;;
30068;SDS011;16894;49.456;10.644;2023-07-09T14:52:35;798.63;;;734.70;;
30068;SDS011;16894;49.456;10.644;2023-07-09T14:55:01;766.17;;;705.25;;
30068;SDS011;16894;49.456;10.644;2023-07-09T14:57:28;679.42;;;626.92;;
30068;SDS011;16894;49.456;10.644;2023-07-09T14:59:55;723.50;;;666.55;;
30068;SDS011;16894;49.456;10.644;2023-07-09T15:02:25;773.10;;;711.22;;
30068;SDS011;16894;49.456;10.644;2023-07-09T15:04:54;794.83;;;731.00;;
30068;SDS011;16894;49.456;10.644;2023-07-09T15:07:20;753.58;;;693.85;;
30068;SDS011;16894;49.456;10.644;2023-07-09T15:09:45;594.20;;;550.42;;
30068;SDS011;16894;49.456;10.644;2023-07-09T15:12:14;717.65;;;662.15;;
30068;SDS011;16894;49.456;10.644;2023-07-09T15:14:48;642.08;;;593.47;;
30068;SDS011;16894;49.456;10.644;2023-07-09T15:17:14;617.58;;;571.85;;
30068;SDS011;16894;49.456;10.644;2023-07-09T15:19:40;532.28;;;496.23;;